sensor_id;sensor_type;location;lat;lon;timestamp;P1;durP1;ratioP1;P2;durP2;ratioP2
18726;SDS011;9492;51.888;5.186;2023-07-13T00:01:11;4.30;;;1.70;;
18726;SDS011;9492;51.888;5.186;2023-07-13T00:03:37;3.67;;;1.37;;
18726;SDS011;9492;51.888;5.186;2023-07-13T00:06:06;3.23;;;1.60;;
18726;SDS011;9492;51.888;5.186;2023-07-13T00:08:32;4.20;;;1.30;;
18726;SDS011;9492;51.888;5.186;2023-07-13T00:10:58;6.03;;;1.70;;
18726;SDS011;9492;51.888;5.186;2023-07-13T00:13:24;4.17;;;1.50;;
18726;SDS011;9492;51.888;5.186;2023-07-13T00:15:51;3.87;;;2.27;;
18726;SDS011;9492;51.888;5.186;2023-07-13T00:18:18;5.67;;;1.70;;
18726;SDS011;9492;51.888;5.186;2023-07-13T00:20:45;3.67;;;1.67;;
18726;SDS011;9492;51.888;5.186;2023-07-13T00:23:11;5.10;;;1.47;;
18726;SDS011;9492;51.888;5.186;2023-07-13T00:25:40;5.67;;;1.50;;
18726;SDS011;9492;51.888;5.186;2023-07-13T00:28:06;1.53;;;1.43;;
18726;SDS011;9492;51.888;5.186;2023-07-13T00:30:32;5.43;;;1.47;;
18726;SDS011;9492;51.888;5.186;2023-07-13T00:32:58;4.87;;;1.77;;
18726;SDS011;9492;51.888;5.186;2023-07-13T00:35:26;5.67;;;1.80;;
18726;SDS011;9492;51.888;5.186;2023-07-13T00:37:52;6.40;;;1.37;;
18726;SDS011;9492;51.888;5.186;2023-07-13T00:40:18;6.57;;;2.20;;
18726;SDS011;9492;51.888;5.186;2023-07-13T00:42:44;3.93;;;1.83;;
18726;SDS011;9492;51.888;5.186;2023-07-13T00:47:37;2.57;;;1.77;;
18726;SDS011;9492;51.888;5.186;2023-07-13T00:50:04;5.53;;;1.77;;
18726;SDS011;9492;51.888;5.186;2023-07-13T00:52:30;6.07;;;1.83;;
18726;SDS011;9492;51.888;5.186;2023-07-13T00:54:56;4.10;;;1.77;;
18726;SDS011;9492;51.888;5.186;2023-07-13T00:57:23;3.60;;;1.40;;
18726;SDS011;9492;51.888;5.186;2023-07-13T00:59:51;10.70;;;2.20;;
18726;SDS011;9492;51.888;5.186;2023-07-13T01:02:17;4.20;;;1.60;;
18726;SDS011;9492;51.888;5.186;2023-07-13T01:04:44;4.30;;;1.40;;
18726;SDS011;9492;51.888;5.186;2023-07-13T01:07:10;5.13;;;2.13;;
18726;SDS011;9492;51.888;5.186;2023-07-13T01:09:36;7.63;;;2.20;;
18726;SDS011;9492;51.888;5.186;2023-07-13T01:12:03;2.13;;;1.40;;
18726;SDS011;9492;51.888;5.186;2023-07-13T01:14:29;3.63;;;1.53;;
18726;SDS011;9492;51.888;5.186;2023-07-13T01:16:55;4.17;;;1.70;;
18726;SDS011;9492;51.888;5.186;2023-07-13T01:21:51;3.47;;;1.40;;
18726;SDS011;9492;51.888;5.186;2023-07-13T01:24:17;4.77;;;1.80;;
18726;SDS011;9492;51.888;5.186;2023-07-13T01:26:43;3.50;;;1.80;;
18726;SDS011;9492;51.888;5.186;2023-07-13T01:29:09;3.97;;;1.60;;
18726;SDS011;9492;51.888;5.186;2023-07-13T01:31:35;4.17;;;2.07;;
18726;SDS011;9492;51.888;5.186;2023-07-13T01:34:01;4.67;;;1.43;;
18726;SDS011;9492;51.888;5.186;2023-07-13T01:36:27;2.23;;;1.50;;
18726;SDS011;9492;51.888;5.186;2023-07-13T01:38:53;6.40;;;2.07;;
18726;SDS011;9492;51.888;5.186;2023-07-13T01:41:19;5.07;;;1.90;;
18726;SDS011;9492;51.888;5.186;2023-07-13T01:43:45;4.73;;;2.10;;
18726;SDS011;9492;51.888;5.186;2023-07-13T01:46:11;6.47;;;2.43;;
18726;SDS011;9492;51.888;5.186;2023-07-13T01:48:37;5.03;;;2.03;;
18726;SDS011;9492;51.888;5.186;2023-07-13T01:51:03;4.83;;;1.80;;
18726;SDS011;9492;51.888;5.186;2023-07-13T01:53:29;7.53;;;1.93;;
18726;SDS011;9492;51.888;5.186;2023-07-13T01:55:56;8.33;;;2.20;;
18726;SDS011;9492;51.888;5.186;2023-07-13T01:58:22;7.70;;;2.90;;
18726;SDS011;9492;51.888;5.186;2023-07-13T02:00:48;6.07;;;2.10;;
18726;SDS011;9492;51.888;5.186;2023-07-13T02:03:15;7.70;;;2.13;;
18726;SDS011;9492;51.888;5.186;2023-07-13T02:05:43;5.33;;;1.70;;
18726;SDS011;9492;51.888;5.186;2023-07-13T02:08:09;4.80;;;1.77;;
18726;SDS011;9492;51.888;5.186;2023-07-13T02:10:36;4.23;;;1.70;;
18726;SDS011;9492;51.888;5.186;2023-07-13T02:13:04;5.73;;;2.03;;
18726;SDS011;9492;51.888;5.186;2023-07-13T02:15:30;6.03;;;2.50;;
18726;SDS011;9492;51.888;5.186;2023-07-13T02:17:56;6.53;;;2.00;;
18726;SDS011;9492;51.888;5.186;2023-07-13T02:20:23;6.70;;;2.20;;
18726;SDS011;9492;51.888;5.186;2023-07-13T02:22:49;6.53;;;2.33;;
18726;SDS011;9492;51.888;5.186;2023-07-13T02:25:15;4.00;;;2.10;;
18726;SDS011;9492;51.888;5.186;2023-07-13T02:27:42;8.40;;;2.23;;
18726;SDS011;9492;51.888;5.186;2023-07-13T02:30:09;6.20;;;2.10;;
18726;SDS011;9492;51.888;5.186;2023-07-13T02:32:35;8.40;;;2.47;;
18726;SDS011;9492;51.888;5.186;2023-07-13T02:35:01;7.43;;;2.67;;
18726;SDS011;9492;51.888;5.186;2023-07-13T02:37:27;9.80;;;2.33;;
18726;SDS011;9492;51.888;5.186;2023-07-13T02:39:53;8.90;;;2.23;;
18726;SDS011;9492;51.888;5.186;2023-07-13T02:42:19;9.47;;;3.40;;
18726;SDS011;9492;51.888;5.186;2023-07-13T02:44:45;6.50;;;2.70;;
18726;SDS011;9492;51.888;5.186;2023-07-13T02:47:11;7.03;;;3.10;;
18726;SDS011;9492;51.888;5.186;2023-07-13T02:49:38;6.33;;;2.53;;
18726;SDS011;9492;51.888;5.186;2023-07-13T02:52:04;5.03;;;2.43;;
18726;SDS011;9492;51.888;5.186;2023-07-13T02:54:30;6.93;;;3.33;;
18726;SDS011;9492;51.888;5.186;2023-07-13T02:56:56;6.47;;;2.30;;
18726;SDS011;9492;51.888;5.186;2023-07-13T02:59:22;5.53;;;2.63;;
18726;SDS011;9492;51.888;5.186;2023-07-13T03:01:48;4.57;;;2.30;;
18726;SDS011;9492;51.888;5.186;2023-07-13T03:04:15;7.87;;;2.60;;
18726;SDS011;9492;51.888;5.186;2023-07-13T03:06:44;9.77;;;2.97;;
18726;SDS011;9492;51.888;5.186;2023-07-13T03:09:11;5.37;;;2.00;;
18726;SDS011;9492;51.888;5.186;2023-07-13T03:11:37;6.90;;;2.50;;
18726;SDS011;9492;51.888;5.186;2023-07-13T03:14:04;8.10;;;2.47;;
18726;SDS011;9492;51.888;5.186;2023-07-13T03:16:30;7.27;;;2.53;;
18726;SDS011;9492;51.888;5.186;2023-07-13T03:18:56;9.17;;;2.87;;
18726;SDS011;9492;51.888;5.186;2023-07-13T03:21:22;6.67;;;2.63;;
18726;SDS011;9492;51.888;5.186;2023-07-13T03:23:48;7.73;;;2.47;;
18726;SDS011;9492;51.888;5.186;2023-07-13T03:26:15;11.10;;;3.10;;
18726;SDS011;9492;51.888;5.186;2023-07-13T03:28:42;10.43;;;3.00;;
18726;SDS011;9492;51.888;5.186;2023-07-13T03:31:09;5.87;;;3.10;;
18726;SDS011;9492;51.888;5.186;2023-07-13T03:33:36;8.00;;;2.67;;
18726;SDS011;9492;51.888;5.186;2023-07-13T03:36:03;8.00;;;2.87;;
18726;SDS011;9492;51.888;5.186;2023-07-13T03:38:30;8.07;;;3.47;;
18726;SDS011;9492;51.888;5.186;2023-07-13T03:40:56;7.33;;;3.13;;
18726;SDS011;9492;51.888;5.186;2023-07-13T03:43:22;10.83;;;3.07;;
18726;SDS011;9492;51.888;5.186;2023-07-13T03:45:48;6.53;;;2.83;;
18726;SDS011;9492;51.888;5.186;2023-07-13T03:48:15;7.20;;;2.70;;
18726;SDS011;9492;51.888;5.186;2023-07-13T03:50:41;7.37;;;2.73;;
18726;SDS011;9492;51.888;5.186;2023-07-13T03:53:07;7.47;;;2.43;;
18726;SDS011;9492;51.888;5.186;2023-07-13T03:55:33;12.83;;;3.80;;
18726;SDS011;9492;51.888;5.186;2023-07-13T03:58:00;9.57;;;3.60;;
18726;SDS011;9492;51.888;5.186;2023-07-13T04:00:26;14.57;;;4.03;;
18726;SDS011;9492;51.888;5.186;2023-07-13T04:02:52;10.83;;;3.07;;
18726;SDS011;9492;51.888;5.186;2023-07-13T04:05:19;9.17;;;3.30;;
18726;SDS011;9492;51.888;5.186;2023-07-13T04:07:45;8.73;;;3.60;;
18726;SDS011;9492;51.888;5.186;2023-07-13T04:10:11;8.40;;;3.00;;
18726;SDS011;9492;51.888;5.186;2023-07-13T04:12:37;10.37;;;3.40;;
18726;SDS011;9492;51.888;5.186;2023-07-13T04:15:03;12.77;;;3.77;;
18726;SDS011;9492;51.888;5.186;2023-07-13T04:17:29;11.53;;;3.80;;
18726;SDS011;9492;51.888;5.186;2023-07-13T04:19:55;10.10;;;3.53;;
18726;SDS011;9492;51.888;5.186;2023-07-13T04:22:21;12.07;;;3.67;;
18726;SDS011;9492;51.888;5.186;2023-07-13T04:24:47;10.93;;;3.57;;
18726;SDS011;9492;51.888;5.186;2023-07-13T04:27:14;10.00;;;3.47;;
18726;SDS011;9492;51.888;5.186;2023-07-13T04:29:40;8.73;;;3.63;;
18726;SDS011;9492;51.888;5.186;2023-07-13T04:32:06;9.30;;;3.73;;
18726;SDS011;9492;51.888;5.186;2023-07-13T04:34:33;10.63;;;3.80;;
18726;SDS011;9492;51.888;5.186;2023-07-13T04:36:59;9.23;;;4.03;;
18726;SDS011;9492;51.888;5.186;2023-07-13T04:39:26;10.47;;;4.47;;
18726;SDS011;9492;51.888;5.186;2023-07-13T04:41:52;12.77;;;4.87;;
18726;SDS011;9492;51.888;5.186;2023-07-13T04:44:18;12.93;;;4.10;;
18726;SDS011;9492;51.888;5.186;2023-07-13T04:46:44;9.43;;;4.27;;
18726;SDS011;9492;51.888;5.186;2023-07-13T04:49:10;16.07;;;4.73;;
18726;SDS011;9492;51.888;5.186;2023-07-13T04:51:37;6.30;;;3.60;;
18726;SDS011;9492;51.888;5.186;2023-07-13T04:54:03;12.57;;;4.63;;
18726;SDS011;9492;51.888;5.186;2023-07-13T04:56:30;10.70;;;4.67;;
18726;SDS011;9492;51.888;5.186;2023-07-13T04:58:56;10.97;;;3.87;;
18726;SDS011;9492;51.888;5.186;2023-07-13T05:01:23;8.63;;;4.33;;
18726;SDS011;9492;51.888;5.186;2023-07-13T05:03:49;12.83;;;4.17;;
18726;SDS011;9492;51.888;5.186;2023-07-13T05:06:16;9.63;;;4.07;;
18726;SDS011;9492;51.888;5.186;2023-07-13T05:08:42;11.83;;;4.23;;
18726;SDS011;9492;51.888;5.186;2023-07-13T05:11:08;15.33;;;5.07;;
18726;SDS011;9492;51.888;5.186;2023-07-13T05:13:37;11.80;;;4.13;;
18726;SDS011;9492;51.888;5.186;2023-07-13T05:16:05;13.37;;;4.60;;
18726;SDS011;9492;51.888;5.186;2023-07-13T05:18:32;12.80;;;4.73;;
18726;SDS011;9492;51.888;5.186;2023-07-13T05:21:00;9.97;;;4.83;;
18726;SDS011;9492;51.888;5.186;2023-07-13T05:23:26;11.23;;;4.80;;
18726;SDS011;9492;51.888;5.186;2023-07-13T05:25:52;16.40;;;5.17;;
18726;SDS011;9492;51.888;5.186;2023-07-13T05:28:18;12.13;;;4.83;;
18726;SDS011;9492;51.888;5.186;2023-07-13T05:30:45;12.77;;;5.13;;
18726;SDS011;9492;51.888;5.186;2023-07-13T05:33:11;13.47;;;4.93;;
18726;SDS011;9492;51.888;5.186;2023-07-13T05:35:37;10.07;;;4.73;;
18726;SDS011;9492;51.888;5.186;2023-07-13T05:38:04;19.47;;;6.23;;
18726;SDS011;9492;51.888;5.186;2023-07-13T05:40:30;12.50;;;5.03;;
18726;SDS011;9492;51.888;5.186;2023-07-13T05:42:56;20.60;;;6.57;;
18726;SDS011;9492;51.888;5.186;2023-07-13T05:45:22;12.70;;;5.67;;
18726;SDS011;9492;51.888;5.186;2023-07-13T05:47:48;17.40;;;7.00;;
18726;SDS011;9492;51.888;5.186;2023-07-13T05:50:14;13.87;;;6.00;;
18726;SDS011;9492;51.888;5.186;2023-07-13T05:52:41;17.43;;;7.13;;
18726;SDS011;9492;51.888;5.186;2023-07-13T05:55:07;13.67;;;6.80;;
18726;SDS011;9492;51.888;5.186;2023-07-13T05:57:33;20.93;;;7.37;;
18726;SDS011;9492;51.888;5.186;2023-07-13T05:59:59;12.53;;;6.30;;
18726;SDS011;9492;51.888;5.186;2023-07-13T06:02:27;17.60;;;7.53;;
18726;SDS011;9492;51.888;5.186;2023-07-13T06:04:53;13.17;;;7.57;;
18726;SDS011;9492;51.888;5.186;2023-07-13T06:07:19;12.87;;;6.60;;
18726;SDS011;9492;51.888;5.186;2023-07-13T06:09:45;12.17;;;6.83;;
18726;SDS011;9492;51.888;5.186;2023-07-13T06:12:11;14.67;;;6.97;;
18726;SDS011;9492;51.888;5.186;2023-07-13T06:14:37;19.27;;;7.00;;
18726;SDS011;9492;51.888;5.186;2023-07-13T06:17:03;19.93;;;7.10;;
18726;SDS011;9492;51.888;5.186;2023-07-13T06:19:29;18.80;;;7.27;;
18726;SDS011;9492;51.888;5.186;2023-07-13T06:21:56;17.43;;;8.53;;
18726;SDS011;9492;51.888;5.186;2023-07-13T06:24:23;18.37;;;7.60;;
18726;SDS011;9492;51.888;5.186;2023-07-13T06:26:49;15.10;;;8.23;;
18726;SDS011;9492;51.888;5.186;2023-07-13T06:29:15;13.67;;;7.60;;
18726;SDS011;9492;51.888;5.186;2023-07-13T06:31:41;22.10;;;8.50;;
18726;SDS011;9492;51.888;5.186;2023-07-13T06:34:08;18.60;;;8.90;;
18726;SDS011;9492;51.888;5.186;2023-07-13T06:36:34;15.77;;;9.17;;
18726;SDS011;9492;51.888;5.186;2023-07-13T06:39:01;19.47;;;9.00;;
18726;SDS011;9492;51.888;5.186;2023-07-13T06:41:27;25.50;;;9.27;;
18726;SDS011;9492;51.888;5.186;2023-07-13T06:43:55;19.53;;;8.80;;
18726;SDS011;9492;51.888;5.186;2023-07-13T06:46:22;14.33;;;8.27;;
18726;SDS011;9492;51.888;5.186;2023-07-13T06:48:48;15.37;;;8.23;;
18726;SDS011;9492;51.888;5.186;2023-07-13T06:51:14;17.07;;;8.07;;
18726;SDS011;9492;51.888;5.186;2023-07-13T06:53:40;19.17;;;7.67;;
18726;SDS011;9492;51.888;5.186;2023-07-13T06:56:08;21.10;;;9.00;;
18726;SDS011;9492;51.888;5.186;2023-07-13T06:58:35;20.03;;;8.67;;
18726;SDS011;9492;51.888;5.186;2023-07-13T07:01:01;18.07;;;8.03;;
18726;SDS011;9492;51.888;5.186;2023-07-13T07:03:28;14.00;;;7.97;;
18726;SDS011;9492;51.888;5.186;2023-07-13T07:05:54;14.57;;;7.40;;
18726;SDS011;9492;51.888;5.186;2023-07-13T07:08:25;14.47;;;6.90;;
18726;SDS011;9492;51.888;5.186;2023-07-13T07:10:51;16.63;;;6.87;;
18726;SDS011;9492;51.888;5.186;2023-07-13T07:13:19;13.70;;;7.13;;
18726;SDS011;9492;51.888;5.186;2023-07-13T07:15:45;19.07;;;7.57;;
18726;SDS011;9492;51.888;5.186;2023-07-13T07:18:11;11.97;;;7.60;;
18726;SDS011;9492;51.888;5.186;2023-07-13T07:20:37;12.60;;;6.40;;
18726;SDS011;9492;51.888;5.186;2023-07-13T07:23:03;15.87;;;7.47;;
18726;SDS011;9492;51.888;5.186;2023-07-13T07:25:29;13.47;;;6.80;;
18726;SDS011;9492;51.888;5.186;2023-07-13T07:27:58;13.23;;;6.33;;
18726;SDS011;9492;51.888;5.186;2023-07-13T07:30:24;16.47;;;7.57;;
18726;SDS011;9492;51.888;5.186;2023-07-13T07:32:50;12.13;;;6.53;;
18726;SDS011;9492;51.888;5.186;2023-07-13T07:35:16;14.77;;;6.27;;
18726;SDS011;9492;51.888;5.186;2023-07-13T07:37:42;9.33;;;5.23;;
18726;SDS011;9492;51.888;5.186;2023-07-13T07:40:08;9.87;;;4.90;;
18726;SDS011;9492;51.888;5.186;2023-07-13T07:42:34;11.10;;;5.37;;
18726;SDS011;9492;51.888;5.186;2023-07-13T07:45:00;8.33;;;4.43;;
18726;SDS011;9492;51.888;5.186;2023-07-13T07:47:27;12.23;;;4.60;;
18726;SDS011;9492;51.888;5.186;2023-07-13T07:49:53;5.70;;;3.83;;
18726;SDS011;9492;51.888;5.186;2023-07-13T07:52:19;11.23;;;3.77;;
18726;SDS011;9492;51.888;5.186;2023-07-13T07:54:45;6.93;;;3.47;;
18726;SDS011;9492;51.888;5.186;2023-07-13T07:57:11;14.93;;;4.10;;
18726;SDS011;9492;51.888;5.186;2023-07-13T07:59:37;6.47;;;3.00;;
18726;SDS011;9492;51.888;5.186;2023-07-13T08:02:03;6.13;;;3.70;;
18726;SDS011;9492;51.888;5.186;2023-07-13T08:04:29;6.70;;;3.13;;
18726;SDS011;9492;51.888;5.186;2023-07-13T08:06:55;7.80;;;3.97;;
18726;SDS011;9492;51.888;5.186;2023-07-13T08:09:22;10.60;;;4.03;;
18726;SDS011;9492;51.888;5.186;2023-07-13T08:11:48;7.10;;;3.37;;
18726;SDS011;9492;51.888;5.186;2023-07-13T08:14:14;8.50;;;3.33;;
18726;SDS011;9492;51.888;5.186;2023-07-13T08:16:40;7.73;;;2.90;;
18726;SDS011;9492;51.888;5.186;2023-07-13T08:19:06;7.17;;;3.10;;
18726;SDS011;9492;51.888;5.186;2023-07-13T08:21:32;10.37;;;3.20;;
18726;SDS011;9492;51.888;5.186;2023-07-13T08:23:59;6.37;;;2.90;;
18726;SDS011;9492;51.888;5.186;2023-07-13T08:26:25;12.07;;;3.97;;
18726;SDS011;9492;51.888;5.186;2023-07-13T08:28:51;13.20;;;3.93;;
18726;SDS011;9492;51.888;5.186;2023-07-13T08:31:20;14.10;;;3.93;;
18726;SDS011;9492;51.888;5.186;2023-07-13T08:33:46;10.63;;;3.70;;
18726;SDS011;9492;51.888;5.186;2023-07-13T08:36:12;10.37;;;3.47;;
18726;SDS011;9492;51.888;5.186;2023-07-13T08:38:38;8.57;;;3.60;;
18726;SDS011;9492;51.888;5.186;2023-07-13T08:41:12;7.13;;;3.10;;
18726;SDS011;9492;51.888;5.186;2023-07-13T08:46:41;6.73;;;3.93;;
18726;SDS011;9492;51.888;5.186;2023-07-13T08:49:16;6.83;;;3.13;;
18726;SDS011;9492;51.888;5.186;2023-07-13T08:51:45;6.70;;;3.40;;
18726;SDS011;9492;51.888;5.186;2023-07-13T08:57:02;7.97;;;3.67;;
18726;SDS011;9492;51.888;5.186;2023-07-13T08:59:32;8.50;;;3.67;;
18726;SDS011;9492;51.888;5.186;2023-07-13T09:04:42;5.77;;;3.00;;
18726;SDS011;9492;51.888;5.186;2023-07-13T09:15:04;6.67;;;2.70;;
18726;SDS011;9492;51.888;5.186;2023-07-13T09:17:35;6.33;;;2.60;;
18726;SDS011;9492;51.888;5.186;2023-07-13T09:22:35;7.33;;;2.47;;
18726;SDS011;9492;51.888;5.186;2023-07-13T09:27:37;5.33;;;2.20;;
18726;SDS011;9492;51.888;5.186;2023-07-13T09:32:33;4.67;;;2.43;;
18726;SDS011;9492;51.888;5.186;2023-07-13T09:34:59;2.40;;;1.87;;
18726;SDS011;9492;51.888;5.186;2023-07-13T09:37:28;6.20;;;2.30;;
18726;SDS011;9492;51.888;5.186;2023-07-13T09:39:56;3.10;;;1.83;;
18726;SDS011;9492;51.888;5.186;2023-07-13T09:42:22;3.50;;;2.07;;
18726;SDS011;9492;51.888;5.186;2023-07-13T09:44:53;7.60;;;2.20;;
18726;SDS011;9492;51.888;5.186;2023-07-13T09:47:21;3.23;;;2.13;;
18726;SDS011;9492;51.888;5.186;2023-07-13T09:50:01;5.23;;;2.50;;
18726;SDS011;9492;51.888;5.186;2023-07-13T09:52:28;5.07;;;2.47;;
18726;SDS011;9492;51.888;5.186;2023-07-13T09:55:11;7.20;;;2.27;;
18726;SDS011;9492;51.888;5.186;2023-07-13T09:57:48;4.10;;;2.43;;
18726;SDS011;9492;51.888;5.186;2023-07-13T10:00:27;3.87;;;2.00;;
18726;SDS011;9492;51.888;5.186;2023-07-13T10:03:29;5.87;;;2.60;;
18726;SDS011;9492;51.888;5.186;2023-07-13T10:05:47;6.33;;;2.23;;
18726;SDS011;9492;51.888;5.186;2023-07-13T10:08:17;5.93;;;3.10;;
18726;SDS011;9492;51.888;5.186;2023-07-13T10:10:44;6.50;;;2.30;;
18726;SDS011;9492;51.888;5.186;2023-07-13T10:13:32;10.00;;;2.63;;
18726;SDS011;9492;51.888;5.186;2023-07-13T10:15:57;5.17;;;2.43;;
18726;SDS011;9492;51.888;5.186;2023-07-13T10:18:24;3.97;;;1.93;;
18726;SDS011;9492;51.888;5.186;2023-07-13T10:20:54;3.43;;;1.90;;
18726;SDS011;9492;51.888;5.186;2023-07-13T10:23:27;5.87;;;2.03;;
18726;SDS011;9492;51.888;5.186;2023-07-13T10:25:58;2.30;;;1.97;;
18726;SDS011;9492;51.888;5.186;2023-07-13T10:28:28;3.63;;;2.10;;
18726;SDS011;9492;51.888;5.186;2023-07-13T10:30:55;5.47;;;2.47;;
18726;SDS011;9492;51.888;5.186;2023-07-13T10:33:22;4.70;;;2.17;;
18726;SDS011;9492;51.888;5.186;2023-07-13T10:35:49;2.67;;;1.73;;
18726;SDS011;9492;51.888;5.186;2023-07-13T10:38:21;6.00;;;2.57;;
18726;SDS011;9492;51.888;5.186;2023-07-13T10:41:08;4.30;;;2.30;;
18726;SDS011;9492;51.888;5.186;2023-07-13T10:43:41;4.87;;;2.50;;
18726;SDS011;9492;51.888;5.186;2023-07-13T10:46:08;4.40;;;2.37;;
18726;SDS011;9492;51.888;5.186;2023-07-13T10:48:35;8.47;;;2.50;;
18726;SDS011;9492;51.888;5.186;2023-07-13T10:51:03;4.33;;;2.50;;
18726;SDS011;9492;51.888;5.186;2023-07-13T10:53:32;6.67;;;2.97;;
18726;SDS011;9492;51.888;5.186;2023-07-13T11:03:36;6.47;;;1.90;;
18726;SDS011;9492;51.888;5.186;2023-07-13T11:06:13;2.83;;;2.00;;
18726;SDS011;9492;51.888;5.186;2023-07-13T11:18:52;3.40;;;2.30;;
18726;SDS011;9492;51.888;5.186;2023-07-13T11:21:19;5.80;;;2.57;;
18726;SDS011;9492;51.888;5.186;2023-07-13T11:23:53;7.33;;;2.57;;
18726;SDS011;9492;51.888;5.186;2023-07-13T11:31:43;5.67;;;2.70;;
18726;SDS011;9492;51.888;5.186;2023-07-13T11:34:25;3.57;;;2.40;;
18726;SDS011;9492;51.888;5.186;2023-07-13T11:36:53;7.23;;;2.13;;
18726;SDS011;9492;51.888;5.186;2023-07-13T11:41:56;5.27;;;2.53;;
18726;SDS011;9492;51.888;5.186;2023-07-13T11:44:23;3.77;;;2.37;;
18726;SDS011;9492;51.888;5.186;2023-07-13T11:46:51;2.77;;;2.20;;
18726;SDS011;9492;51.888;5.186;2023-07-13T11:49:21;3.37;;;2.20;;
18726;SDS011;9492;51.888;5.186;2023-07-13T11:51:47;3.97;;;2.27;;
18726;SDS011;9492;51.888;5.186;2023-07-13T11:54:29;3.30;;;1.77;;
18726;SDS011;9492;51.888;5.186;2023-07-13T11:56:57;2.90;;;2.10;;
18726;SDS011;9492;51.888;5.186;2023-07-13T11:59:25;2.27;;;2.07;;
18726;SDS011;9492;51.888;5.186;2023-07-13T12:01:52;2.27;;;1.80;;
18726;SDS011;9492;51.888;5.186;2023-07-13T12:04:26;6.20;;;1.93;;
18726;SDS011;9492;51.888;5.186;2023-07-13T12:09:38;2.40;;;1.67;;
18726;SDS011;9492;51.888;5.186;2023-07-13T12:12:08;2.90;;;1.67;;
18726;SDS011;9492;51.888;5.186;2023-07-13T12:14:35;4.53;;;2.27;;
18726;SDS011;9492;51.888;5.186;2023-07-13T12:17:03;3.23;;;1.80;;
18726;SDS011;9492;51.888;5.186;2023-07-13T12:19:34;3.77;;;2.03;;
18726;SDS011;9492;51.888;5.186;2023-07-13T12:22:01;3.17;;;1.63;;
18726;SDS011;9492;51.888;5.186;2023-07-13T12:24:27;6.43;;;2.10;;
18726;SDS011;9492;51.888;5.186;2023-07-13T12:29:19;6.37;;;2.00;;
18726;SDS011;9492;51.888;5.186;2023-07-13T12:31:48;3.53;;;1.83;;
18726;SDS011;9492;51.888;5.186;2023-07-13T12:34:15;3.27;;;1.70;;
18726;SDS011;9492;51.888;5.186;2023-07-13T12:36:52;3.77;;;1.77;;
18726;SDS011;9492;51.888;5.186;2023-07-13T12:41:51;6.23;;;1.77;;
18726;SDS011;9492;51.888;5.186;2023-07-13T12:44:20;3.23;;;1.87;;
18726;SDS011;9492;51.888;5.186;2023-07-13T12:46:55;5.10;;;2.20;;
18726;SDS011;9492;51.888;5.186;2023-07-13T12:49:26;3.30;;;1.80;;
18726;SDS011;9492;51.888;5.186;2023-07-13T12:52:09;3.30;;;1.93;;
18726;SDS011;9492;51.888;5.186;2023-07-13T12:54:38;3.57;;;2.07;;
18726;SDS011;9492;51.888;5.186;2023-07-13T12:57:05;5.23;;;2.47;;
18726;SDS011;9492;51.888;5.186;2023-07-13T12:59:34;4.60;;;1.57;;
18726;SDS011;9492;51.888;5.186;2023-07-13T13:02:01;3.93;;;1.70;;
18726;SDS011;9492;51.888;5.186;2023-07-13T13:04:28;3.37;;;1.80;;
18726;SDS011;9492;51.888;5.186;2023-07-13T13:07:01;2.77;;;2.00;;
18726;SDS011;9492;51.888;5.186;2023-07-13T13:09:27;4.43;;;1.70;;
18726;SDS011;9492;51.888;5.186;2023-07-13T13:11:53;2.87;;;1.70;;
18726;SDS011;9492;51.888;5.186;2023-07-13T13:14:19;1.43;;;1.30;;
18726;SDS011;9492;51.888;5.186;2023-07-13T13:16:46;5.13;;;2.07;;
18726;SDS011;9492;51.888;5.186;2023-07-13T13:21:43;4.43;;;1.93;;
18726;SDS011;9492;51.888;5.186;2023-07-13T13:24:16;2.67;;;1.67;;
18726;SDS011;9492;51.888;5.186;2023-07-13T13:26:43;2.30;;;1.60;;
18726;SDS011;9492;51.888;5.186;2023-07-13T13:29:17;5.57;;;2.07;;
18726;SDS011;9492;51.888;5.186;2023-07-13T13:31:44;2.40;;;1.97;;
18726;SDS011;9492;51.888;5.186;2023-07-13T13:34:11;2.13;;;1.70;;
18726;SDS011;9492;51.888;5.186;2023-07-13T13:36:37;2.80;;;2.10;;
18726;SDS011;9492;51.888;5.186;2023-07-13T13:39:05;4.17;;;1.70;;
18726;SDS011;9492;51.888;5.186;2023-07-13T13:41:36;2.73;;;1.80;;
18726;SDS011;9492;51.888;5.186;2023-07-13T13:44:04;2.70;;;1.63;;
18726;SDS011;9492;51.888;5.186;2023-07-13T13:46:30;2.03;;;1.37;;
18726;SDS011;9492;51.888;5.186;2023-07-13T13:48:56;2.70;;;1.40;;
18726;SDS011;9492;51.888;5.186;2023-07-13T13:51:22;2.27;;;1.40;;
18726;SDS011;9492;51.888;5.186;2023-07-13T13:53:49;2.27;;;1.67;;
18726;SDS011;9492;51.888;5.186;2023-07-13T13:56:16;1.40;;;1.30;;
18726;SDS011;9492;51.888;5.186;2023-07-13T13:58:43;1.90;;;1.50;;
18726;SDS011;9492;51.888;5.186;2023-07-13T14:01:13;3.10;;;1.50;;
18726;SDS011;9492;51.888;5.186;2023-07-13T14:03:39;1.77;;;1.63;;
18726;SDS011;9492;51.888;5.186;2023-07-13T14:06:07;3.87;;;1.73;;
18726;SDS011;9492;51.888;5.186;2023-07-13T14:08:34;2.33;;;1.70;;
18726;SDS011;9492;51.888;5.186;2023-07-13T14:11:00;3.37;;;1.70;;
18726;SDS011;9492;51.888;5.186;2023-07-13T14:13:28;3.00;;;1.70;;
18726;SDS011;9492;51.888;5.186;2023-07-13T14:15:55;3.07;;;1.77;;
18726;SDS011;9492;51.888;5.186;2023-07-13T14:18:21;2.53;;;1.70;;
18726;SDS011;9492;51.888;5.186;2023-07-13T14:20:48;4.30;;;1.60;;
18726;SDS011;9492;51.888;5.186;2023-07-13T14:23:17;3.93;;;1.50;;
18726;SDS011;9492;51.888;5.186;2023-07-13T14:25:43;2.60;;;1.63;;
18726;SDS011;9492;51.888;5.186;2023-07-13T14:30:46;3.50;;;1.67;;
18726;SDS011;9492;51.888;5.186;2023-07-13T14:33:12;3.27;;;1.97;;
18726;SDS011;9492;51.888;5.186;2023-07-13T14:35:38;3.30;;;1.70;;
18726;SDS011;9492;51.888;5.186;2023-07-13T14:38:05;2.73;;;1.50;;
18726;SDS011;9492;51.888;5.186;2023-07-13T14:40:34;3.17;;;1.67;;
18726;SDS011;9492;51.888;5.186;2023-07-13T14:43:00;1.57;;;1.10;;
18726;SDS011;9492;51.888;5.186;2023-07-13T14:45:26;1.60;;;1.50;;
18726;SDS011;9492;51.888;5.186;2023-07-13T14:47:52;1.30;;;1.20;;
18726;SDS011;9492;51.888;5.186;2023-07-13T14:50:20;2.07;;;1.23;;
18726;SDS011;9492;51.888;5.186;2023-07-13T14:52:47;3.07;;;1.37;;
18726;SDS011;9492;51.888;5.186;2023-07-13T14:55:14;1.43;;;1.27;;
18726;SDS011;9492;51.888;5.186;2023-07-13T14:57:41;3.03;;;1.40;;
18726;SDS011;9492;51.888;5.186;2023-07-13T15:00:14;3.77;;;1.43;;
18726;SDS011;9492;51.888;5.186;2023-07-13T15:02:40;2.57;;;1.27;;
18726;SDS011;9492;51.888;5.186;2023-07-13T15:05:15;2.63;;;1.50;;
18726;SDS011;9492;51.888;5.186;2023-07-13T15:07:42;2.23;;;1.30;;
18726;SDS011;9492;51.888;5.186;2023-07-13T15:12:40;1.87;;;1.47;;
18726;SDS011;9492;51.888;5.186;2023-07-13T15:15:06;1.60;;;1.33;;
18726;SDS011;9492;51.888;5.186;2023-07-13T15:17:42;1.63;;;1.33;;
18726;SDS011;9492;51.888;5.186;2023-07-13T15:20:16;2.23;;;1.67;;
18726;SDS011;9492;51.888;5.186;2023-07-13T15:22:44;2.17;;;1.53;;
18726;SDS011;9492;51.888;5.186;2023-07-13T15:25:15;1.63;;;1.53;;
18726;SDS011;9492;51.888;5.186;2023-07-13T15:27:41;2.00;;;1.60;;
18726;SDS011;9492;51.888;5.186;2023-07-13T15:30:07;2.87;;;1.80;;
18726;SDS011;9492;51.888;5.186;2023-07-13T15:32:34;3.33;;;1.57;;
18726;SDS011;9492;51.888;5.186;2023-07-13T15:35:00;4.83;;;1.47;;
18726;SDS011;9492;51.888;5.186;2023-07-13T15:37:26;2.17;;;1.50;;
18726;SDS011;9492;51.888;5.186;2023-07-13T15:39:52;2.23;;;1.27;;
18726;SDS011;9492;51.888;5.186;2023-07-13T15:42:19;1.53;;;1.43;;
18726;SDS011;9492;51.888;5.186;2023-07-13T15:44:45;2.93;;;1.60;;
18726;SDS011;9492;51.888;5.186;2023-07-13T15:47:13;2.67;;;1.77;;
18726;SDS011;9492;51.888;5.186;2023-07-13T15:49:39;2.63;;;1.70;;
18726;SDS011;9492;51.888;5.186;2023-07-13T15:52:18;2.23;;;1.30;;
18726;SDS011;9492;51.888;5.186;2023-07-13T15:54:45;2.10;;;1.43;;
18726;SDS011;9492;51.888;5.186;2023-07-13T15:57:12;2.00;;;1.13;;
18726;SDS011;9492;51.888;5.186;2023-07-13T15:59:38;2.80;;;1.40;;
18726;SDS011;9492;51.888;5.186;2023-07-13T16:02:16;1.40;;;1.30;;
18726;SDS011;9492;51.888;5.186;2023-07-13T16:04:42;1.97;;;1.40;;
18726;SDS011;9492;51.888;5.186;2023-07-13T16:07:12;2.10;;;1.27;;
18726;SDS011;9492;51.888;5.186;2023-07-13T16:09:40;1.40;;;1.30;;